Forestburg, Canada
Current Conditions -  °F | °C
As of 3:00 AM on Monday 26 Jan 2015 (Local Time) from CYEG Reporting Station
Broken Clouds Broken Clouds  
Wind Chill: 26°   Ceiling: 18000
Heat Index: 32°   Visibility: 15mi
Dew Point: 28°   Wind: 7mph
Humidity: 87%   Direction: 180°S
Pressure: 29.84"   Gusts: NA
Location:  52.58°N, 112.07°W
Report Text: CYEG 261000Z 18006KT 15SM BKN180 00/M02 A2984 RMK AC6 SLP129
Loading
Personal Weather Stations






























Interactive Weather Map New forecast layout! Learn more

10-Day Weather Forecast

Advertisements
Track Severe Weather on mobile